sensor_id;sensor_type;location;lat;lon;timestamp;P1;durP1;ratioP1;P2;durP2;ratioP2
1296;SDS011;641;48.492;9.184;2023-02-28T00:01:55;9.45;;;3.42;;
1296;SDS011;641;48.492;9.184;2023-02-28T00:04:21;8.45;;;3.13;;
1296;SDS011;641;48.492;9.184;2023-02-28T00:06:48;7.55;;;2.55;;
1296;SDS011;641;48.492;9.184;2023-02-28T00:09:14;12.23;;;3.50;;
1296;SDS011;641;48.492;9.184;2023-02-28T00:11:43;8.77;;;3.00;;
1296;SDS011;641;48.492;9.184;2023-02-28T00:14:14;8.10;;;3.00;;
1296;SDS011;641;48.492;9.184;2023-02-28T00:16:45;8.00;;;2.80;;
1296;SDS011;641;48.492;9.184;2023-02-28T00:19:14;9.75;;;3.08;;
1296;SDS011;641;48.492;9.184;2023-02-28T00:21:41;9.10;;;3.33;;
1296;SDS011;641;48.492;9.184;2023-02-28T00:24:08;7.93;;;3.00;;
1296;SDS011;641;48.492;9.184;2023-02-28T00:26:34;7.55;;;2.90;;
1296;SDS011;641;48.492;9.184;2023-02-28T00:29:00;7.90;;;3.00;;
1296;SDS011;641;48.492;9.184;2023-02-28T00:31:26;7.50;;;2.80;;
1296;SDS011;641;48.492;9.184;2023-02-28T00:33:58;9.90;;;3.25;;
1296;SDS011;641;48.492;9.184;2023-02-28T00:36:24;8.75;;;2.97;;
1296;SDS011;641;48.492;9.184;2023-02-28T00:38:51;10.40;;;3.03;;
1296;SDS011;641;48.492;9.184;2023-02-28T00:41:24;8.27;;;2.67;;
1296;SDS011;641;48.492;9.184;2023-02-28T00:43:50;8.13;;;2.93;;
1296;SDS011;641;48.492;9.184;2023-02-28T00:46:16;8.03;;;2.60;;
1296;SDS011;641;48.492;9.184;2023-02-28T00:48:43;8.50;;;3.00;;
1296;SDS011;641;48.492;9.184;2023-02-28T00:51:19;9.07;;;3.17;;
1296;SDS011;641;48.492;9.184;2023-02-28T00:53:45;8.20;;;3.03;;
1296;SDS011;641;48.492;9.184;2023-02-28T00:56:14;9.77;;;3.30;;
1296;SDS011;641;48.492;9.184;2023-02-28T00:58:40;8.25;;;2.97;;
1296;SDS011;641;48.492;9.184;2023-02-28T01:01:12;8.60;;;2.70;;
1296;SDS011;641;48.492;9.184;2023-02-28T01:03:39;10.55;;;2.83;;
1296;SDS011;641;48.492;9.184;2023-02-28T01:06:09;7.53;;;2.60;;
1296;SDS011;641;48.492;9.184;2023-02-28T01:08:35;11.30;;;2.93;;
1296;SDS011;641;48.492;9.184;2023-02-28T01:11:12;10.48;;;3.08;;
1296;SDS011;641;48.492;9.184;2023-02-28T01:13:40;9.43;;;3.40;;
1296;SDS011;641;48.492;9.184;2023-02-28T01:16:14;7.65;;;2.63;;
1296;SDS011;641;48.492;9.184;2023-02-28T01:18:41;7.85;;;2.70;;
1296;SDS011;641;48.492;9.184;2023-02-28T01:21:11;7.97;;;2.88;;
1296;SDS011;641;48.492;9.184;2023-02-28T01:23:41;7.05;;;2.70;;
1296;SDS011;641;48.492;9.184;2023-02-28T01:26:12;9.27;;;2.58;;
1296;SDS011;641;48.492;9.184;2023-02-28T01:28:40;13.38;;;3.70;;
1296;SDS011;641;48.492;9.184;2023-02-28T01:31:07;10.10;;;3.33;;
1296;SDS011;641;48.492;9.184;2023-02-28T01:33:35;7.97;;;3.25;;
1296;SDS011;641;48.492;9.184;2023-02-28T01:36:16;7.40;;;2.65;;
1296;SDS011;641;48.492;9.184;2023-02-28T01:38:44;10.10;;;3.25;;
1296;SDS011;641;48.492;9.184;2023-02-28T01:41:21;7.32;;;2.92;;
1296;SDS011;641;48.492;9.184;2023-02-28T01:43:53;8.82;;;3.00;;
1296;SDS011;641;48.492;9.184;2023-02-28T01:46:19;8.40;;;2.63;;
1296;SDS011;641;48.492;9.184;2023-02-28T01:48:46;7.35;;;2.58;;
1296;SDS011;641;48.492;9.184;2023-02-28T01:51:20;8.00;;;2.80;;
1296;SDS011;641;48.492;9.184;2023-02-28T01:53:55;9.40;;;3.10;;
1296;SDS011;641;48.492;9.184;2023-02-28T01:56:27;8.20;;;3.53;;
1296;SDS011;641;48.492;9.184;2023-02-28T01:58:56;8.48;;;3.15;;
1296;SDS011;641;48.492;9.184;2023-02-28T02:01:26;10.13;;;3.20;;
1296;SDS011;641;48.492;9.184;2023-02-28T02:03:57;9.85;;;3.70;;
1296;SDS011;641;48.492;9.184;2023-02-28T02:06:44;9.48;;;3.20;;
1296;SDS011;641;48.492;9.184;2023-02-28T02:09:15;9.90;;;2.35;;
1296;SDS011;641;48.492;9.184;2023-02-28T02:11:41;7.97;;;3.00;;
1296;SDS011;641;48.492;9.184;2023-02-28T02:35:00;13.50;;;3.78;;
1296;SDS011;641;48.492;9.184;2023-02-28T02:38:08;12.00;;;3.83;;
1296;SDS011;641;48.492;9.184;2023-02-28T02:40:46;9.70;;;3.60;;
1296;SDS011;641;48.492;9.184;2023-02-28T02:43:21;9.68;;;3.92;;
1296;SDS011;641;48.492;9.184;2023-02-28T02:46:07;11.70;;;3.75;;
1296;SDS011;641;48.492;9.184;2023-02-28T02:48:47;10.65;;;3.22;;
1296;SDS011;641;48.492;9.184;2023-02-28T02:51:16;8.70;;;4.07;;
1296;SDS011;641;48.492;9.184;2023-02-28T02:53:49;10.30;;;4.03;;
1296;SDS011;641;48.492;9.184;2023-02-28T02:56:25;11.52;;;3.13;;
1296;SDS011;641;48.492;9.184;2023-02-28T02:58:57;10.50;;;3.80;;
1296;SDS011;641;48.492;9.184;2023-02-28T03:01:27;9.85;;;3.80;;
1296;SDS011;641;48.492;9.184;2023-02-28T03:03:58;9.60;;;3.58;;
1296;SDS011;641;48.492;9.184;2023-02-28T03:06:28;9.85;;;3.78;;
1296;SDS011;641;48.492;9.184;2023-02-28T03:08:55;11.98;;;3.88;;
1296;SDS011;641;48.492;9.184;2023-02-28T03:11:21;9.95;;;3.95;;
1296;SDS011;641;48.492;9.184;2023-02-28T03:14:04;7.80;;;2.93;;
1296;SDS011;641;48.492;9.184;2023-02-28T03:19:38;9.20;;;3.17;;
1296;SDS011;641;48.492;9.184;2023-02-28T03:28:02;9.43;;;3.30;;
1296;SDS011;641;48.492;9.184;2023-02-28T03:30:59;8.57;;;3.13;;
1296;SDS011;641;48.492;9.184;2023-02-28T03:33:47;10.20;;;3.65;;
1296;SDS011;641;48.492;9.184;2023-02-28T03:36:50;8.77;;;3.30;;
1296;SDS011;641;48.492;9.184;2023-02-28T03:39:25;10.10;;;3.05;;
1296;SDS011;641;48.492;9.184;2023-02-28T03:42:18;8.57;;;3.47;;
1296;SDS011;641;48.492;9.184;2023-02-28T03:44:51;9.40;;;3.50;;
1296;SDS011;641;48.492;9.184;2023-02-28T03:47:31;9.48;;;3.10;;
1296;SDS011;641;48.492;9.184;2023-02-28T03:50:11;9.13;;;3.30;;
1296;SDS011;641;48.492;9.184;2023-02-28T03:56:22;9.98;;;3.20;;
1296;SDS011;641;48.492;9.184;2023-02-28T03:59:10;10.90;;;4.65;;
1296;SDS011;641;48.492;9.184;2023-02-28T04:01:42;11.18;;;3.95;;
1296;SDS011;641;48.492;9.184;2023-02-28T04:04:15;11.57;;;4.32;;
1296;SDS011;641;48.492;9.184;2023-02-28T04:06:46;9.98;;;4.22;;
1296;SDS011;641;48.492;9.184;2023-02-28T04:09:19;10.48;;;4.15;;
1296;SDS011;641;48.492;9.184;2023-02-28T04:11:51;9.90;;;4.25;;
1296;SDS011;641;48.492;9.184;2023-02-28T04:18:05;11.20;;;4.38;;
1296;SDS011;641;48.492;9.184;2023-02-28T04:23:54;10.70;;;4.28;;
1296;SDS011;641;48.492;9.184;2023-02-28T04:26:29;10.02;;;4.22;;
1296;SDS011;641;48.492;9.184;2023-02-28T04:32:21;9.68;;;4.15;;
1296;SDS011;641;48.492;9.184;2023-02-28T04:36:04;12.20;;;4.78;;
1296;SDS011;641;48.492;9.184;2023-02-28T04:38:36;10.30;;;3.95;;
1296;SDS011;641;48.492;9.184;2023-02-28T04:41:12;10.02;;;4.00;;
1296;SDS011;641;48.492;9.184;2023-02-28T04:43:48;10.73;;;4.20;;
1296;SDS011;641;48.492;9.184;2023-02-28T04:46:18;9.80;;;4.05;;
1296;SDS011;641;48.492;9.184;2023-02-28T04:48:46;12.15;;;4.47;;
1296;SDS011;641;48.492;9.184;2023-02-28T04:51:14;9.80;;;3.47;;
1296;SDS011;641;48.492;9.184;2023-02-28T04:53:41;9.07;;;4.15;;
1296;SDS011;641;48.492;9.184;2023-02-28T04:56:10;9.23;;;4.00;;
1296;SDS011;641;48.492;9.184;2023-02-28T04:58:40;12.35;;;4.60;;
1296;SDS011;641;48.492;9.184;2023-02-28T05:03:45;9.70;;;4.18;;
1296;SDS011;641;48.492;9.184;2023-02-28T05:06:13;10.35;;;4.78;;
1296;SDS011;641;48.492;9.184;2023-02-28T05:08:39;9.95;;;4.10;;
1296;SDS011;641;48.492;9.184;2023-02-28T05:11:06;10.07;;;4.20;;
1296;SDS011;641;48.492;9.184;2023-02-28T05:13:41;10.30;;;4.72;;
1296;SDS011;641;48.492;9.184;2023-02-28T05:16:07;13.70;;;5.40;;
1296;SDS011;641;48.492;9.184;2023-02-28T05:18:34;10.97;;;4.80;;
1296;SDS011;641;48.492;9.184;2023-02-28T05:21:02;9.95;;;3.95;;
1296;SDS011;641;48.492;9.184;2023-02-28T05:23:31;13.27;;;5.32;;
1296;SDS011;641;48.492;9.184;2023-02-28T05:26:03;9.95;;;4.90;;
1296;SDS011;641;48.492;9.184;2023-02-28T05:28:29;12.10;;;4.63;;
1296;SDS011;641;48.492;9.184;2023-02-28T05:30:54;13.00;;;5.80;;
1296;SDS011;641;48.492;9.184;2023-02-28T05:33:22;11.35;;;4.82;;
1296;SDS011;641;48.492;9.184;2023-02-28T05:35:47;10.87;;;5.00;;
1296;SDS011;641;48.492;9.184;2023-02-28T05:38:14;13.48;;;4.50;;
1296;SDS011;641;48.492;9.184;2023-02-28T05:40:40;11.27;;;4.87;;
1296;SDS011;641;48.492;9.184;2023-02-28T05:43:08;19.83;;;7.43;;
1296;SDS011;641;48.492;9.184;2023-02-28T05:45:36;13.13;;;5.15;;
1296;SDS011;641;48.492;9.184;2023-02-28T05:48:04;11.73;;;6.18;;
1296;SDS011;641;48.492;9.184;2023-02-28T05:50:30;11.50;;;5.72;;
1296;SDS011;641;48.492;9.184;2023-02-28T05:52:56;11.47;;;6.47;;
1296;SDS011;641;48.492;9.184;2023-02-28T05:55:22;19.42;;;9.48;;
1296;SDS011;641;48.492;9.184;2023-02-28T05:57:48;31.00;;;14.77;;
1296;SDS011;641;48.492;9.184;2023-02-28T06:00:14;26.63;;;12.67;;
1296;SDS011;641;48.492;9.184;2023-02-28T06:02:45;23.42;;;12.27;;
1296;SDS011;641;48.492;9.184;2023-02-28T06:05:17;25.27;;;13.50;;
1296;SDS011;641;48.492;9.184;2023-02-28T06:07:46;11.15;;;5.65;;
1296;SDS011;641;48.492;9.184;2023-02-28T06:10:13;13.20;;;5.23;;
1296;SDS011;641;48.492;9.184;2023-02-28T06:12:41;14.07;;;6.53;;
1296;SDS011;641;48.492;9.184;2023-02-28T06:15:09;15.32;;;5.93;;
1296;SDS011;641;48.492;9.184;2023-02-28T06:17:38;13.63;;;5.45;;
1296;SDS011;641;48.492;9.184;2023-02-28T06:20:05;12.63;;;7.22;;
1296;SDS011;641;48.492;9.184;2023-02-28T06:22:31;15.80;;;6.40;;
1296;SDS011;641;48.492;9.184;2023-02-28T06:24:57;13.83;;;5.80;;
1296;SDS011;641;48.492;9.184;2023-02-28T06:27:23;12.50;;;5.20;;
1296;SDS011;641;48.492;9.184;2023-02-28T06:29:49;12.90;;;5.60;;
1296;SDS011;641;48.492;9.184;2023-02-28T06:32:19;14.65;;;6.85;;
1296;SDS011;641;48.492;9.184;2023-02-28T06:34:44;12.50;;;5.40;;
1296;SDS011;641;48.492;9.184;2023-02-28T06:37:10;14.87;;;5.00;;
1296;SDS011;641;48.492;9.184;2023-02-28T06:39:36;11.40;;;5.17;;
1296;SDS011;641;48.492;9.184;2023-02-28T06:42:02;12.90;;;4.70;;
1296;SDS011;641;48.492;9.184;2023-02-28T06:44:28;14.43;;;5.85;;
1296;SDS011;641;48.492;9.184;2023-02-28T06:47:00;11.00;;;4.75;;
1296;SDS011;641;48.492;9.184;2023-02-28T06:49:35;15.27;;;5.65;;
1296;SDS011;641;48.492;9.184;2023-02-28T06:52:02;15.32;;;5.97;;
1296;SDS011;641;48.492;9.184;2023-02-28T06:54:35;11.32;;;5.07;;
1296;SDS011;641;48.492;9.184;2023-02-28T06:57:03;14.73;;;6.85;;
1296;SDS011;641;48.492;9.184;2023-02-28T06:59:35;14.82;;;6.05;;
1296;SDS011;641;48.492;9.184;2023-02-28T07:02:01;16.15;;;6.75;;
1296;SDS011;641;48.492;9.184;2023-02-28T07:04:36;12.07;;;5.00;;
1296;SDS011;641;48.492;9.184;2023-02-28T07:07:02;15.33;;;6.60;;
1296;SDS011;641;48.492;9.184;2023-02-28T07:09:28;13.77;;;6.70;;
1296;SDS011;641;48.492;9.184;2023-02-28T07:11:54;16.88;;;7.25;;
1296;SDS011;641;48.492;9.184;2023-02-28T07:14:20;17.87;;;7.30;;
1296;SDS011;641;48.492;9.184;2023-02-28T07:16:47;18.02;;;9.00;;
1296;SDS011;641;48.492;9.184;2023-02-28T07:19:13;13.10;;;6.60;;
1296;SDS011;641;48.492;9.184;2023-02-28T07:21:38;20.67;;;8.43;;
1296;SDS011;641;48.492;9.184;2023-02-28T07:24:04;14.17;;;7.70;;
1296;SDS011;641;48.492;9.184;2023-02-28T07:26:30;17.60;;;6.85;;
1296;SDS011;641;48.492;9.184;2023-02-28T07:28:59;14.77;;;7.28;;
1296;SDS011;641;48.492;9.184;2023-02-28T07:31:24;13.93;;;6.83;;
1296;SDS011;641;48.492;9.184;2023-02-28T07:33:50;16.63;;;6.80;;
1296;SDS011;641;48.492;9.184;2023-02-28T07:36:16;17.60;;;8.50;;
1296;SDS011;641;48.492;9.184;2023-02-28T07:38:46;14.10;;;7.60;;
1296;SDS011;641;48.492;9.184;2023-02-28T07:41:16;16.90;;;7.18;;
1296;SDS011;641;48.492;9.184;2023-02-28T07:43:43;14.20;;;7.10;;
1296;SDS011;641;48.492;9.184;2023-02-28T07:46:10;16.67;;;7.68;;
1296;SDS011;641;48.492;9.184;2023-02-28T07:48:37;16.17;;;7.90;;
1296;SDS011;641;48.492;9.184;2023-02-28T07:51:03;16.03;;;8.00;;
1296;SDS011;641;48.492;9.184;2023-02-28T07:53:29;14.65;;;7.65;;
1296;SDS011;641;48.492;9.184;2023-02-28T07:55:59;14.30;;;7.10;;
1296;SDS011;641;48.492;9.184;2023-02-28T07:58:26;14.52;;;7.70;;
1296;SDS011;641;48.492;9.184;2023-02-28T08:00:53;12.77;;;5.67;;
1296;SDS011;641;48.492;9.184;2023-02-28T08:03:19;15.30;;;7.33;;
1296;SDS011;641;48.492;9.184;2023-02-28T08:05:46;14.33;;;7.77;;
1296;SDS011;641;48.492;9.184;2023-02-28T08:08:12;14.13;;;7.00;;
1296;SDS011;641;48.492;9.184;2023-02-28T08:10:39;15.40;;;7.30;;
1296;SDS011;641;48.492;9.184;2023-02-28T08:13:04;18.00;;;7.50;;
1296;SDS011;641;48.492;9.184;2023-02-28T08:15:30;16.17;;;8.23;;
1296;SDS011;641;48.492;9.184;2023-02-28T08:17:56;13.93;;;7.50;;
1296;SDS011;641;48.492;9.184;2023-02-28T08:20:22;16.13;;;9.67;;
1296;SDS011;641;48.492;9.184;2023-02-28T08:22:51;13.77;;;6.15;;
1296;SDS011;641;48.492;9.184;2023-02-28T08:25:17;19.33;;;7.43;;
1296;SDS011;641;48.492;9.184;2023-02-28T08:27:43;12.18;;;6.60;;
1296;SDS011;641;48.492;9.184;2023-02-28T08:30:13;17.65;;;8.95;;
1296;SDS011;641;48.492;9.184;2023-02-28T08:32:39;14.32;;;7.15;;
1296;SDS011;641;48.492;9.184;2023-02-28T08:35:06;14.82;;;7.47;;
1296;SDS011;641;48.492;9.184;2023-02-28T08:37:34;16.42;;;7.30;;
1296;SDS011;641;48.492;9.184;2023-02-28T08:39:59;16.23;;;8.00;;
1296;SDS011;641;48.492;9.184;2023-02-28T08:42:25;13.70;;;7.20;;
1296;SDS011;641;48.492;9.184;2023-02-28T08:44:50;14.20;;;8.93;;
1296;SDS011;641;48.492;9.184;2023-02-28T08:47:16;16.23;;;8.30;;
1296;SDS011;641;48.492;9.184;2023-02-28T08:49:42;15.50;;;8.30;;
1296;SDS011;641;48.492;9.184;2023-02-28T08:52:07;17.13;;;8.53;;
1296;SDS011;641;48.492;9.184;2023-02-28T08:54:36;17.38;;;8.52;;
1296;SDS011;641;48.492;9.184;2023-02-28T08:57:02;16.33;;;8.33;;
1296;SDS011;641;48.492;9.184;2023-02-28T08:59:28;18.63;;;8.40;;
1296;SDS011;641;48.492;9.184;2023-02-28T09:01:54;20.35;;;8.70;;
1296;SDS011;641;48.492;9.184;2023-02-28T09:04:20;16.10;;;8.17;;
1296;SDS011;641;48.492;9.184;2023-02-28T09:06:46;16.13;;;8.23;;
1296;SDS011;641;48.492;9.184;2023-02-28T09:09:15;15.45;;;7.57;;
1296;SDS011;641;48.492;9.184;2023-02-28T09:11:41;14.18;;;7.75;;
1296;SDS011;641;48.492;9.184;2023-02-28T09:14:06;17.60;;;8.47;;
1296;SDS011;641;48.492;9.184;2023-02-28T09:16:34;17.27;;;8.57;;
1296;SDS011;641;48.492;9.184;2023-02-28T09:19:00;18.13;;;9.00;;
1296;SDS011;641;48.492;9.184;2023-02-28T09:21:26;16.10;;;8.60;;
1296;SDS011;641;48.492;9.184;2023-02-28T09:23:52;17.48;;;9.35;;
1296;SDS011;641;48.492;9.184;2023-02-28T09:57:20;15.50;;;8.83;;
1296;SDS011;641;48.492;9.184;2023-02-28T09:59:56;15.43;;;8.60;;
1296;SDS011;641;48.492;9.184;2023-02-28T10:05:34;15.27;;;7.40;;
1296;SDS011;641;48.492;9.184;2023-02-28T10:10:38;16.13;;;9.13;;
1296;SDS011;641;48.492;9.184;2023-02-28T10:13:15;15.40;;;7.90;;
1296;SDS011;641;48.492;9.184;2023-02-28T10:15:48;17.37;;;9.03;;
1296;SDS011;641;48.492;9.184;2023-02-28T10:18:27;15.43;;;8.13;;
1296;SDS011;641;48.492;9.184;2023-02-28T10:21:28;17.40;;;8.07;;
1296;SDS011;641;48.492;9.184;2023-02-28T10:24:55;14.40;;;7.17;;
1296;SDS011;641;48.492;9.184;2023-02-28T10:26:52;15.47;;;7.73;;
1296;SDS011;641;48.492;9.184;2023-02-28T10:29:24;15.80;;;8.10;;
1296;SDS011;641;48.492;9.184;2023-02-28T10:31:51;18.40;;;8.47;;
1296;SDS011;641;48.492;9.184;2023-02-28T10:34:17;15.00;;;8.30;;
1296;SDS011;641;48.492;9.184;2023-02-28T10:36:45;17.07;;;9.07;;
1296;SDS011;641;48.492;9.184;2023-02-28T10:42:04;20.10;;;8.27;;
1296;SDS011;641;48.492;9.184;2023-02-28T10:44:42;16.37;;;8.37;;
1296;SDS011;641;48.492;9.184;2023-02-28T10:47:13;15.07;;;8.37;;
1296;SDS011;641;48.492;9.184;2023-02-28T10:49:46;14.27;;;7.40;;
1296;SDS011;641;48.492;9.184;2023-02-28T10:52:13;18.53;;;8.80;;
1296;SDS011;641;48.492;9.184;2023-02-28T10:55:14;16.13;;;8.30;;
1296;SDS011;641;48.492;9.184;2023-02-28T10:57:49;13.70;;;7.10;;
1296;SDS011;641;48.492;9.184;2023-02-28T11:00:23;15.23;;;7.30;;
1296;SDS011;641;48.492;9.184;2023-02-28T11:02:56;17.87;;;10.37;;
1296;SDS011;641;48.492;9.184;2023-02-28T11:05:25;16.60;;;8.57;;
1296;SDS011;641;48.492;9.184;2023-02-28T11:08:02;18.70;;;9.00;;
1296;SDS011;641;48.492;9.184;2023-02-28T11:10:53;16.83;;;8.07;;
1296;SDS011;641;48.492;9.184;2023-02-28T11:13:39;15.90;;;8.80;;
1296;SDS011;641;48.492;9.184;2023-02-28T11:16:10;16.90;;;10.13;;
1296;SDS011;641;48.492;9.184;2023-02-28T11:18:41;18.00;;;9.97;;
1296;SDS011;641;48.492;9.184;2023-02-28T11:21:16;17.40;;;9.30;;
1296;SDS011;641;48.492;9.184;2023-02-28T11:23:49;15.07;;;8.17;;
1296;SDS011;641;48.492;9.184;2023-02-28T11:26:36;21.70;;;10.13;;
1296;SDS011;641;48.492;9.184;2023-02-28T11:29:03;17.83;;;9.50;;
1296;SDS011;641;48.492;9.184;2023-02-28T11:31:42;20.90;;;9.77;;
1296;SDS011;641;48.492;9.184;2023-02-28T11:34:24;16.50;;;9.27;;
1296;SDS011;641;48.492;9.184;2023-02-28T11:36:53;16.57;;;9.23;;
1296;SDS011;641;48.492;9.184;2023-02-28T11:39:21;15.70;;;8.27;;
1296;SDS011;641;48.492;9.184;2023-02-28T11:44:37;14.70;;;8.70;;
1296;SDS011;641;48.492;9.184;2023-02-28T11:55:36;15.87;;;9.30;;
1296;SDS011;641;48.492;9.184;2023-02-28T12:03:26;16.60;;;9.53;;
1296;SDS011;641;48.492;9.184;2023-02-28T12:27:05;17.13;;;9.83;;
1296;SDS011;641;48.492;9.184;2023-02-28T12:32:31;14.70;;;8.03;;
1296;SDS011;641;48.492;9.184;2023-02-28T12:34:58;16.20;;;7.70;;
1296;SDS011;641;48.492;9.184;2023-02-28T12:37:33;15.97;;;9.23;;
1296;SDS011;641;48.492;9.184;2023-02-28T12:40:05;15.77;;;10.03;;
1296;SDS011;641;48.492;9.184;2023-02-28T12:42:39;18.80;;;9.77;;
1296;SDS011;641;48.492;9.184;2023-02-28T12:45:12;15.93;;;8.70;;
1296;SDS011;641;48.492;9.184;2023-02-28T12:47:40;14.47;;;8.50;;
1296;SDS011;641;48.492;9.184;2023-02-28T12:50:10;16.30;;;9.50;;
1296;SDS011;641;48.492;9.184;2023-02-28T12:55:25;17.60;;;8.67;;
1296;SDS011;641;48.492;9.184;2023-02-28T13:07:17;14.40;;;8.87;;
1296;SDS011;641;48.492;9.184;2023-02-28T13:10:07;16.33;;;9.40;;
1296;SDS011;641;48.492;9.184;2023-02-28T13:12:34;16.10;;;9.20;;
1296;SDS011;641;48.492;9.184;2023-02-28T13:15:22;16.67;;;9.30;;
1296;SDS011;641;48.492;9.184;2023-02-28T13:17:53;16.37;;;9.27;;
1296;SDS011;641;48.492;9.184;2023-02-28T13:20:23;16.30;;;9.30;;
1296;SDS011;641;48.492;9.184;2023-02-28T13:22:54;17.87;;;9.30;;
1296;SDS011;641;48.492;9.184;2023-02-28T13:27:48;20.57;;;8.43;;
1296;SDS011;641;48.492;9.184;2023-02-28T13:38:45;20.50;;;10.37;;
1296;SDS011;641;48.492;9.184;2023-02-28T13:44:03;15.33;;;8.60;;
1296;SDS011;641;48.492;9.184;2023-02-28T13:46:30;19.30;;;8.37;;
1296;SDS011;641;48.492;9.184;2023-02-28T13:48:56;18.73;;;8.73;;
1296;SDS011;641;48.492;9.184;2023-02-28T13:51:42;14.00;;;8.83;;
1296;SDS011;641;48.492;9.184;2023-02-28T13:57:06;12.07;;;5.97;;
1296;SDS011;641;48.492;9.184;2023-02-28T13:59:47;20.43;;;9.40;;
1296;SDS011;641;48.492;9.184;2023-02-28T14:05:13;13.90;;;7.80;;
1296;SDS011;641;48.492;9.184;2023-02-28T14:07:46;16.57;;;8.40;;
1296;SDS011;641;48.492;9.184;2023-02-28T14:10:34;15.37;;;7.10;;
1296;SDS011;641;48.492;9.184;2023-02-28T14:15:57;17.90;;;8.30;;
1296;SDS011;641;48.492;9.184;2023-02-28T14:20:54;14.20;;;8.37;;
1296;SDS011;641;48.492;9.184;2023-02-28T14:32:02;16.00;;;8.43;;
1296;SDS011;641;48.492;9.184;2023-02-28T14:34:58;17.20;;;9.17;;
1296;SDS011;641;48.492;9.184;2023-02-28T14:37:45;13.73;;;6.93;;
1296;SDS011;641;48.492;9.184;2023-02-28T14:40:19;14.17;;;8.03;;
1296;SDS011;641;48.492;9.184;2023-02-28T14:42:55;15.53;;;7.97;;
1296;SDS011;641;48.492;9.184;2023-02-28T14:45:23;17.97;;;7.00;;
1296;SDS011;641;48.492;9.184;2023-02-28T14:47:49;13.07;;;7.50;;
1296;SDS011;641;48.492;9.184;2023-02-28T14:50:22;16.00;;;7.40;;
1296;SDS011;641;48.492;9.184;2023-02-28T14:52:54;15.73;;;8.27;;
1296;SDS011;641;48.492;9.184;2023-02-28T14:55:22;15.10;;;6.87;;
1296;SDS011;641;48.492;9.184;2023-02-28T14:58:18;13.17;;;6.20;;
1296;SDS011;641;48.492;9.184;2023-02-28T15:00:46;13.67;;;6.90;;
1296;SDS011;641;48.492;9.184;2023-02-28T15:03:33;12.77;;;6.90;;
1296;SDS011;641;48.492;9.184;2023-02-28T15:06:06;13.50;;;6.87;;
1296;SDS011;641;48.492;9.184;2023-02-28T15:08:39;16.60;;;7.80;;
1296;SDS011;641;48.492;9.184;2023-02-28T15:11:05;15.43;;;6.90;;
1296;SDS011;641;48.492;9.184;2023-02-28T15:13:39;18.87;;;7.97;;
1296;SDS011;641;48.492;9.184;2023-02-28T15:16:12;13.50;;;7.27;;
1296;SDS011;641;48.492;9.184;2023-02-28T15:19:14;15.67;;;8.07;;
1296;SDS011;641;48.492;9.184;2023-02-28T15:22:06;15.77;;;8.40;;
1296;SDS011;641;48.492;9.184;2023-02-28T15:24:41;16.17;;;8.30;;
1296;SDS011;641;48.492;9.184;2023-02-28T15:27:18;19.03;;;7.43;;
1296;SDS011;641;48.492;9.184;2023-02-28T15:29:51;15.90;;;7.37;;
1296;SDS011;641;48.492;9.184;2023-02-28T15:34:52;21.73;;;8.20;;
1296;SDS011;641;48.492;9.184;2023-02-28T15:39:50;15.30;;;8.00;;
1296;SDS011;641;48.492;9.184;2023-02-28T15:42:20;14.17;;;8.03;;
1296;SDS011;641;48.492;9.184;2023-02-28T15:44:47;16.50;;;8.23;;
1296;SDS011;641;48.492;9.184;2023-02-28T15:47:23;16.60;;;8.67;;
1296;SDS011;641;48.492;9.184;2023-02-28T15:49:52;17.67;;;8.53;;
1296;SDS011;641;48.492;9.184;2023-02-28T15:52:32;13.60;;;7.67;;
1296;SDS011;641;48.492;9.184;2023-02-28T15:55:10;14.50;;;8.83;;
1296;SDS011;641;48.492;9.184;2023-02-28T15:57:38;16.77;;;8.90;;
1296;SDS011;641;48.492;9.184;2023-02-28T16:00:06;16.27;;;8.00;;
1296;SDS011;641;48.492;9.184;2023-02-28T16:02:37;13.60;;;7.93;;
1296;SDS011;641;48.492;9.184;2023-02-28T16:07:31;15.50;;;8.10;;
1296;SDS011;641;48.492;9.184;2023-02-28T16:09:58;16.13;;;8.30;;
1296;SDS011;641;48.492;9.184;2023-02-28T16:12:26;16.13;;;8.50;;
1296;SDS011;641;48.492;9.184;2023-02-28T16:14:57;15.90;;;7.47;;
1296;SDS011;641;48.492;9.184;2023-02-28T16:17:27;17.10;;;8.47;;
1296;SDS011;641;48.492;9.184;2023-02-28T16:19:55;18.13;;;9.00;;
1296;SDS011;641;48.492;9.184;2023-02-28T16:22:21;18.07;;;8.50;;
1296;SDS011;641;48.492;9.184;2023-02-28T16:24:46;15.07;;;8.00;;
1296;SDS011;641;48.492;9.184;2023-02-28T16:27:31;16.20;;;8.40;;
1296;SDS011;641;48.492;9.184;2023-02-28T16:29:58;16.03;;;8.20;;
1296;SDS011;641;48.492;9.184;2023-02-28T16:32:24;15.10;;;8.53;;
1296;SDS011;641;48.492;9.184;2023-02-28T16:34:50;15.13;;;8.53;;
1296;SDS011;641;48.492;9.184;2023-02-28T16:37:16;15.87;;;8.77;;
1296;SDS011;641;48.492;9.184;2023-02-28T16:39:44;15.70;;;8.00;;
1296;SDS011;641;48.492;9.184;2023-02-28T16:42:11;18.27;;;8.47;;
1296;SDS011;641;48.492;9.184;2023-02-28T16:44:44;16.80;;;9.03;;
1296;SDS011;641;48.492;9.184;2023-02-28T16:47:11;16.53;;;8.20;;
1296;SDS011;641;48.492;9.184;2023-02-28T16:49:36;18.10;;;8.77;;
1296;SDS011;641;48.492;9.184;2023-02-28T16:52:02;18.30;;;9.40;;
1296;SDS011;641;48.492;9.184;2023-02-28T16:54:28;17.97;;;9.73;;
1296;SDS011;641;48.492;9.184;2023-02-28T16:56:53;21.13;;;9.40;;
1296;SDS011;641;48.492;9.184;2023-02-28T16:59:21;16.27;;;8.27;;
1296;SDS011;641;48.492;9.184;2023-02-28T17:01:49;18.10;;;8.50;;
1296;SDS011;641;48.492;9.184;2023-02-28T17:04:15;16.63;;;8.70;;
1296;SDS011;641;48.492;9.184;2023-02-28T17:06:41;16.03;;;8.67;;
1296;SDS011;641;48.492;9.184;2023-02-28T17:09:08;17.40;;;8.43;;
1296;SDS011;641;48.492;9.184;2023-02-28T17:11:41;17.97;;;9.43;;
1296;SDS011;641;48.492;9.184;2023-02-28T17:14:06;16.43;;;8.70;;
1296;SDS011;641;48.492;9.184;2023-02-28T17:16:33;18.07;;;8.80;;
1296;SDS011;641;48.492;9.184;2023-02-28T17:19:02;18.03;;;8.40;;
1296;SDS011;641;48.492;9.184;2023-02-28T17:21:28;16.97;;;7.90;;
1296;SDS011;641;48.492;9.184;2023-02-28T17:23:54;17.37;;;9.60;;
1296;SDS011;641;48.492;9.184;2023-02-28T17:26:21;17.17;;;9.47;;
1296;SDS011;641;48.492;9.184;2023-02-28T17:28:49;15.20;;;8.17;;
1296;SDS011;641;48.492;9.184;2023-02-28T17:31:16;18.33;;;9.80;;
1296;SDS011;641;48.492;9.184;2023-02-28T17:33:42;19.63;;;9.50;;
1296;SDS011;641;48.492;9.184;2023-02-28T17:36:14;18.13;;;9.23;;
1296;SDS011;641;48.492;9.184;2023-02-28T17:38:46;15.63;;;9.20;;
1296;SDS011;641;48.492;9.184;2023-02-28T17:41:12;19.07;;;9.53;;
1296;SDS011;641;48.492;9.184;2023-02-28T17:43:38;16.53;;;8.27;;
1296;SDS011;641;48.492;9.184;2023-02-28T17:46:05;20.57;;;9.70;;
1296;SDS011;641;48.492;9.184;2023-02-28T17:48:32;16.13;;;8.63;;
1296;SDS011;641;48.492;9.184;2023-02-28T17:50:58;15.37;;;8.83;;
1296;SDS011;641;48.492;9.184;2023-02-28T17:53:23;18.53;;;9.50;;
1296;SDS011;641;48.492;9.184;2023-02-28T17:55:49;22.20;;;10.47;;
1296;SDS011;641;48.492;9.184;2023-02-28T17:58:15;22.90;;;10.97;;
1296;SDS011;641;48.492;9.184;2023-02-28T18:00:43;21.27;;;11.57;;
1296;SDS011;641;48.492;9.184;2023-02-28T18:03:09;19.17;;;10.03;;
1296;SDS011;641;48.492;9.184;2023-02-28T18:05:35;20.90;;;12.03;;
1296;SDS011;641;48.492;9.184;2023-02-28T18:08:01;25.60;;;12.90;;
1296;SDS011;641;48.492;9.184;2023-02-28T18:10:27;21.33;;;11.40;;
1296;SDS011;641;48.492;9.184;2023-02-28T18:12:53;17.03;;;10.20;;
1296;SDS011;641;48.492;9.184;2023-02-28T18:15:19;24.10;;;11.47;;
1296;SDS011;641;48.492;9.184;2023-02-28T18:17:47;20.07;;;11.40;;
1296;SDS011;641;48.492;9.184;2023-02-28T18:20:13;18.00;;;9.70;;
1296;SDS011;641;48.492;9.184;2023-02-28T18:22:40;26.50;;;11.70;;
1296;SDS011;641;48.492;9.184;2023-02-28T18:25:06;18.60;;;10.50;;
1296;SDS011;641;48.492;9.184;2023-02-28T18:27:33;19.20;;;11.10;;
1296;SDS011;641;48.492;9.184;2023-02-28T18:29:59;20.07;;;8.73;;
1296;SDS011;641;48.492;9.184;2023-02-28T18:32:25;22.97;;;11.27;;
1296;SDS011;641;48.492;9.184;2023-02-28T18:34:53;20.37;;;10.23;;
1296;SDS011;641;48.492;9.184;2023-02-28T18:37:22;23.77;;;11.53;;
1296;SDS011;641;48.492;9.184;2023-02-28T18:39:51;25.57;;;12.33;;